Time;durP1;ratioP1;P1;durP2;ratioP2;P2;SDS_P1;SDS_P2;PMS_P1;PMS_P2;Temp;Humidity;BMP_temperature;BMP_pressure;BME280_temperature;BME280_humidity;BME280_pressure;Samples;Min_cycle;Max_cycle;Signal;HPM_P1;HPM_P2
2023/03/04 00:01:41;;;;;;;14.05;2.90;;;5.60;99.90;;;;;;5066003;28;20048;-40
2023/03/04 00:04:07;;;;;;;17.60;3.63;;;5.60;99.90;;;;;;5073811;28;20056;-39
2023/03/04 00:06:33;;;;;;;26.05;3.85;;;5.60;99.90;;;;;;5072869;28;20083;-38
2023/03/04 00:08:59;;;;;;;17.20;3.65;;;5.60;99.90;;;;;;5074459;28;20086;-46
2023/03/04 00:11:24;;;;;;;16.55;4.35;;;5.60;99.90;;;;;;5074997;28;20155;-40
2023/03/04 00:13:50;;;;;;;18.50;3.78;;;5.50;99.90;;;;;;5073489;28;20044;-44
2023/03/04 00:16:16;;;;;;;22.77;3.95;;;5.50;99.90;;;;;;5073815;28;20054;-43
2023/03/04 00:18:41;;;;;;;13.75;2.60;;;5.50;99.90;;;;;;5073489;28;20071;-40
2023/03/04 00:21:07;;;;;;;13.82;2.67;;;5.60;99.90;;;;;;5074264;28;20569;-39
2023/03/04 00:23:33;;;;;;;13.75;2.72;;;5.50;99.90;;;;;;5074681;28;20117;-43
2023/03/04 00:25:59;;;;;;;15.55;2.83;;;5.60;99.90;;;;;;5055271;28;20439;-46
2023/03/04 00:28:24;;;;;;;17.02;2.88;;;5.50;99.90;;;;;;5074539;28;20475;-44
2023/03/04 00:30:50;;;;;;;12.35;2.72;;;5.50;99.90;;;;;;5074186;28;20546;-41
2023/03/04 00:33:16;;;;;;;16.05;3.03;;;5.50;99.90;;;;;;5072797;28;20129;-40
2023/03/04 00:35:41;;;;;;;16.50;3.17;;;5.50;99.90;;;;;;5073575;28;20047;-38
2023/03/04 00:38:07;;;;;;;13.30;2.92;;;5.50;99.90;;;;;;5068854;28;20057;-39
2023/03/04 00:40:33;;;;;;;17.88;3.38;;;5.50;99.90;;;;;;5086274;27;20405;-42
2023/03/04 00:42:59;;;;;;;17.48;3.38;;;5.60;99.90;;;;;;5074521;28;20055;-37
2023/03/04 00:45:24;;;;;;;16.52;3.08;;;5.50;99.90;;;;;;5073225;28;20040;-43
2023/03/04 00:47:50;;;;;;;18.25;3.03;;;5.50;99.90;;;;;;5073153;28;20048;-44
2023/03/04 00:50:16;;;;;;;22.17;2.78;;;5.50;99.90;;;;;;5073924;28;20048;-39
2023/03/04 00:52:42;;;;;;;16.20;3.47;;;5.50;99.90;;;;;;5060482;28;20144;-39
2023/03/04 00:55:08;;;;;;;13.98;2.70;;;5.50;99.90;;;;;;5052239;28;20530;-38
2023/03/04 00:57:34;;;;;;;12.82;2.92;;;5.50;99.90;;;;;;5048452;28;20061;-46
2023/03/04 01:00:00;;;;;;;17.08;2.70;;;5.50;99.90;;;;;;5054330;28;20075;-36
2023/03/04 01:02:25;;;;;;;17.17;2.88;;;5.50;99.90;;;;;;5053416;28;20302;-45
2023/03/04 01:04:51;;;;;;;17.80;3.17;;;5.50;99.90;;;;;;5053157;28;20097;-42
2023/03/04 01:07:17;;;;;;;11.88;2.15;;;5.50;99.90;;;;;;5053015;28;20143;-46
2023/03/04 01:09:44;;;;;;;14.10;2.25;;;5.50;99.90;;;;;;5053767;28;20147;-43
2023/03/04 01:12:10;;;;;;;14.00;2.47;;;5.50;99.90;;;;;;5070333;28;20479;-41
2023/03/04 01:14:35;;;;;;;18.23;2.67;;;5.50;99.90;;;;;;5052849;28;20048;-43
2023/03/04 01:17:01;;;;;;;17.95;2.47;;;5.50;99.90;;;;;;5069432;28;20513;-44
2023/03/04 01:19:27;;;;;;;13.68;2.30;;;5.50;99.90;;;;;;5073908;28;20072;-49
2023/03/04 01:21:53;;;;;;;12.25;2.63;;;5.50;99.90;;;;;;5074052;28;20052;-39
2023/03/04 01:24:18;;;;;;;13.70;2.67;;;5.50;99.90;;;;;;5063379;28;20099;-44
2023/03/04 01:26:44;;;;;;;10.80;1.95;;;5.50;99.90;;;;;;5056427;28;20146;-41
2023/03/04 01:29:09;;;;;;;15.82;2.20;;;5.50;99.90;;;;;;5074030;28;20101;-40
2023/03/04 01:31:35;;;;;;;12.80;2.55;;;5.50;99.90;;;;;;5060574;28;20119;-44
2023/03/04 01:34:01;;;;;;;12.60;2.78;;;5.50;99.90;;;;;;5073813;28;20048;-38
2023/03/04 01:36:26;;;;;;;17.92;2.85;;;5.50;99.90;;;;;;5069225;28;20545;-37
2023/03/04 01:38:52;;;;;;;8.15;2.50;;;5.50;99.90;;;;;;5046603;28;20041;-38
2023/03/04 01:41:23;;;;;;;15.02;2.50;;;5.50;99.90;;;;;;5049593;28;20080;-40
2023/03/04 01:43:49;;;;;;;14.23;1.88;;;5.50;99.90;;;;;;5053032;28;20044;-37
2023/03/04 01:46:16;;;;;;;14.38;3.20;;;5.50;99.90;;;;;;5052626;28;20586;-42
2023/03/04 01:48:43;;;;;;;13.50;2.22;;;5.50;99.90;;;;;;5053639;28;20056;-37
2023/03/04 01:51:15;;;;;;;14.05;2.35;;;5.50;99.90;;;;;;5055973;28;20048;-45
2023/03/04 01:53:41;;;;;;;10.55;2.65;;;5.50;99.90;;;;;;5051161;28;20467;-43
2023/03/04 01:56:24;;;;;;;14.57;2.58;;;5.40;99.90;;;;;;5047393;28;20051;-41
2023/03/04 01:59:21;;;;;;;11.27;3.22;;;5.50;99.90;;;;;;5066937;28;20035;-36
2023/03/04 02:01:55;;;;;;;11.45;2.47;;;5.50;99.90;;;;;;5074026;28;20040;-39
2023/03/04 02:04:24;;;;;;;11.25;1.83;;;5.40;99.90;;;;;;5072738;28;20048;-43
2023/03/04 02:06:50;;;;;;;13.13;2.60;;;5.50;99.90;;;;;;5059733;28;20040;-41
2023/03/04 02:09:18;;;;;;;14.43;2.50;;;5.40;99.90;;;;;;5058475;28;20097;-40
2023/03/04 02:11:45;;;;;;;14.13;2.92;;;5.40;99.90;;;;;;5074761;28;20128;-40
2023/03/04 02:14:12;;;;;;;13.30;3.65;;;5.40;99.90;;;;;;5076680;28;20036;-45
2023/03/04 02:16:38;;;;;;;14.68;2.45;;;5.40;99.90;;;;;;5076787;28;20048;-37
2023/03/04 02:19:20;;;;;;;11.20;2.65;;;5.40;99.90;;;;;;5064138;28;20040;-48
2023/03/04 02:21:46;;;;;;;15.35;2.53;;;5.50;99.90;;;;;;5076493;28;20144;-40
2023/03/04 02:24:25;;;;;;;14.63;2.85;;;5.40;99.90;;;;;;5077140;28;20131;-42
2023/03/04 02:26:51;;;;;;;12.68;2.92;;;5.40;99.90;;;;;;5076674;28;20044;-38
2023/03/04 02:29:17;;;;;;;17.50;3.47;;;5.40;99.90;;;;;;5075755;28;20071;-44
2023/03/04 02:31:45;;;;;;;15.07;2.40;;;5.40;99.90;;;;;;5077119;28;20188;-36
2023/03/04 02:34:14;;;;;;;12.63;2.63;;;5.40;99.90;;;;;;5076010;28;20048;-46
2023/03/04 02:36:41;;;;;;;11.73;2.40;;;5.40;99.90;;;;;;5068844;28;20132;-42
2023/03/04 02:39:12;;;;;;;15.60;2.22;;;5.40;99.90;;;;;;5045767;28;20091;-43
2023/03/04 02:41:37;;;;;;;16.58;2.67;;;5.40;99.90;;;;;;5072000;28;20044;-38
2023/03/04 02:44:18;;;;;;;8.07;2.10;;;5.40;99.90;;;;;;5075083;28;20542;-43
2023/03/04 02:46:44;;;;;;;18.15;2.88;;;5.40;99.90;;;;;;5074104;28;20078;-42
2023/03/04 02:49:11;;;;;;;12.38;2.78;;;5.40;99.90;;;;;;5076266;28;20441;-39
2023/03/04 02:51:36;;;;;;;11.07;2.35;;;5.40;99.90;;;;;;5076375;28;20490;-40
2023/03/04 02:54:02;;;;;;;10.40;1.88;;;5.40;99.90;;;;;;5064601;28;20105;-44
2023/03/04 02:56:28;;;;;;;12.82;2.75;;;5.40;99.90;;;;;;5057999;28;20048;-47
2023/03/04 02:58:54;;;;;;;14.68;2.88;;;5.40;99.90;;;;;;5055741;28;20040;-41
2023/03/04 03:01:19;;;;;;;12.95;2.67;;;5.40;99.90;;;;;;5051925;28;20217;-42
2023/03/04 03:03:45;;;;;;;12.50;2.45;;;5.40;99.90;;;;;;5054615;28;20072;-45
2023/03/04 03:06:10;;;;;;;19.45;2.55;;;5.40;99.90;;;;;;5053181;28;20040;-40
2023/03/04 03:08:36;;;;;;;6.18;1.90;;;5.40;99.90;;;;;;5054923;28;20044;-36
2023/03/04 03:11:02;;;;;;;12.15;1.80;;;5.40;99.90;;;;;;5056112;28;20588;-44
2023/03/04 03:13:27;;;;;;;14.68;3.63;;;5.40;99.90;;;;;;5052987;28;20037;-40
2023/03/04 03:15:53;;;;;;;16.92;3.10;;;5.40;99.90;;;;;;5075238;28;20374;-41
2023/03/04 03:18:19;;;;;;;10.98;2.38;;;5.40;99.90;;;;;;5075979;28;20386;-40
2023/03/04 03:20:45;;;;;;;13.10;2.25;;;5.40;99.90;;;;;;5075661;28;20071;-44
2023/03/04 03:23:11;;;;;;;11.88;2.25;;;5.30;99.90;;;;;;5074055;28;20058;-42
2023/03/04 03:25:37;;;;;;;16.02;2.47;;;5.30;99.90;;;;;;5068254;28;20047;-39
2023/03/04 03:28:03;;;;;;;11.60;3.30;;;5.30;99.90;;;;;;5055616;28;20394;-42
2023/03/04 03:30:29;;;;;;;12.75;2.25;;;5.30;99.90;;;;;;5075002;28;20094;-43
2023/03/04 03:32:55;;;;;;;12.52;3.42;;;5.30;99.90;;;;;;5074561;28;20420;-37
2023/03/04 03:35:20;;;;;;;14.30;2.75;;;5.30;99.90;;;;;;5075573;28;20044;-47
2023/03/04 03:37:47;;;;;;;9.95;2.25;;;5.30;99.90;;;;;;5047613;28;20144;-40
2023/03/04 03:40:14;;;;;;;18.55;2.63;;;5.30;99.90;;;;;;5048345;28;20047;-43
2023/03/04 03:42:40;;;;;;;14.45;2.65;;;5.30;99.90;;;;;;5074773;28;20048;-43
2023/03/04 03:45:06;;;;;;;8.98;2.08;;;5.30;99.90;;;;;;5074617;28;20121;-40
2023/03/04 03:47:31;;;;;;;8.30;1.85;;;5.30;99.90;;;;;;5074659;28;20371;-43
2023/03/04 03:49:57;;;;;;;10.65;2.30;;;5.30;99.90;;;;;;5074508;28;20494;-42
2023/03/04 03:52:23;;;;;;;9.57;1.73;;;5.30;99.90;;;;;;5055983;28;20504;-40
2023/03/04 03:54:49;;;;;;;14.48;2.53;;;5.30;99.90;;;;;;5073549;28;20135;-41
2023/03/04 03:57:14;;;;;;;10.52;2.15;;;5.30;99.90;;;;;;5049625;28;20127;-43
2023/03/04 03:59:40;;;;;;;12.15;3.10;;;5.30;99.90;;;;;;5074742;28;20044;-40
2023/03/04 04:02:05;;;;;;;10.38;1.85;;;5.30;99.90;;;;;;5074790;28;20454;-43
2023/03/04 04:04:32;;;;;;;10.23;2.65;;;5.30;99.90;;;;;;5073995;28;20488;-44
2023/03/04 04:06:58;;;;;;;11.32;2.58;;;5.30;99.90;;;;;;5073799;28;20043;-46
2023/03/04 04:09:23;;;;;;;12.00;3.05;;;5.30;99.90;;;;;;5074440;28;20371;-45
2023/03/04 04:11:49;;;;;;;8.68;2.40;;;5.30;99.90;;;;;;5074453;28;20164;-40
2023/03/04 04:14:15;;;;;;;9.75;2.08;;;5.30;99.90;;;;;;5073588;28;20478;-42
2023/03/04 04:16:40;;;;;;;11.32;2.83;;;5.30;99.90;;;;;;5074232;28;20048;-41
2023/03/04 04:19:06;;;;;;;9.40;2.10;;;5.30;99.90;;;;;;5073091;28;20417;-40
2023/03/04 04:21:32;;;;;;;12.15;2.03;;;5.30;99.90;;;;;;5074586;28;20108;-43
2023/03/04 04:23:57;;;;;;;19.90;4.00;;;5.30;99.90;;;;;;5039988;28;20709;-37
2023/03/04 04:26:23;;;;;;;13.90;3.67;;;5.30;99.90;;;;;;5052005;28;20121;-39
2023/03/04 04:28:49;;;;;;;15.75;3.22;;;5.30;99.90;;;;;;5053374;28;20040;-45
2023/03/04 04:31:14;;;;;;;10.88;2.15;;;5.30;99.90;;;;;;5054221;28;20125;-40
2023/03/04 04:33:40;;;;;;;13.40;2.53;;;5.30;99.90;;;;;;5059239;28;20088;-41
2023/03/04 04:36:06;;;;;;;14.18;3.42;;;5.30;99.90;;;;;;5072393;28;20498;-42
2023/03/04 04:38:32;;;;;;;12.18;2.25;;;5.30;99.90;;;;;;5048022;28;20394;-38
2023/03/04 04:40:58;;;;;;;15.32;2.50;;;5.40;99.90;;;;;;5059352;28;20035;-39
2023/03/04 04:43:24;;;;;;;10.77;2.30;;;5.40;99.90;;;;;;5073393;28;20043;-38
2023/03/04 04:45:50;;;;;;;8.48;1.98;;;5.40;99.90;;;;;;5073788;28;20229;-44
2023/03/04 04:48:16;;;;;;;12.88;2.70;;;5.40;99.90;;;;;;5054335;28;20033;-41
2023/03/04 04:50:42;;;;;;;11.82;3.17;;;5.40;99.90;;;;;;5067134;28;20503;-36
2023/03/04 04:53:09;;;;;;;9.93;2.58;;;5.40;99.90;;;;;;5062070;28;20170;-36
2023/03/04 04:55:34;;;;;;;7.80;2.10;;;5.40;99.90;;;;;;5063315;28;20045;-45
2023/03/04 04:58:00;;;;;;;9.55;2.10;;;5.40;99.90;;;;;;5053041;28;20052;-46
2023/03/04 05:00:26;;;;;;;8.52;2.05;;;5.40;99.90;;;;;;5051840;28;20070;-40
2023/03/04 05:02:51;;;;;;;8.30;2.08;;;5.40;99.90;;;;;;5056961;28;20051;-43
2023/03/04 05:05:17;;;;;;;10.88;2.47;;;5.40;99.90;;;;;;5071478;28;20048;-42
2023/03/04 05:07:43;;;;;;;7.57;1.70;;;5.40;99.90;;;;;;5073031;28;20055;-36
2023/03/04 05:10:09;;;;;;;8.38;1.80;;;5.40;99.90;;;;;;5059446;28;20091;-45
2023/03/04 05:12:35;;;;;;;5.18;1.42;;;5.40;99.90;;;;;;5071717;28;20040;-45
2023/03/04 05:15:00;;;;;;;8.63;1.92;;;5.40;99.90;;;;;;5056338;28;20043;-47
2023/03/04 05:17:26;;;;;;;10.32;2.33;;;5.30;99.90;;;;;;5053039;28;20479;-41
2023/03/04 05:19:52;;;;;;;8.23;1.80;;;5.40;99.90;;;;;;5067329;28;20123;-38
2023/03/04 05:22:17;;;;;;;8.68;1.70;;;5.40;99.90;;;;;;5073640;28;20044;-37
2023/03/04 05:24:43;;;;;;;12.05;1.92;;;5.40;99.90;;;;;;5059839;28;20114;-36
2023/03/04 05:27:08;;;;;;;9.77;1.50;;;5.40;99.90;;;;;;5074070;28;20044;-47
2023/03/04 05:29:34;;;;;;;8.05;1.50;;;5.50;99.90;;;;;;5073744;28;20047;-48
2023/03/04 05:32:00;;;;;;;5.45;1.35;;;5.40;99.90;;;;;;5074565;28;20040;-36
2023/03/04 05:34:26;;;;;;;8.82;1.40;;;5.40;99.90;;;;;;5059725;28;20536;-44
2023/03/04 05:36:51;;;;;;;10.02;2.13;;;5.40;99.90;;;;;;5059223;28;20098;-42
2023/03/04 05:39:17;;;;;;;5.60;1.30;;;5.40;99.90;;;;;;5034945;28;20091;-40
2023/03/04 05:41:42;;;;;;;6.93;1.60;;;5.30;99.90;;;;;;5065993;28;20040;-38
2023/03/04 05:44:08;;;;;;;6.78;1.75;;;5.20;99.90;;;;;;5053075;28;20045;-47
2023/03/04 05:46:34;;;;;;;11.05;1.98;;;5.10;99.90;;;;;;5075441;28;20086;-44
2023/03/04 05:49:00;;;;;;;5.38;1.27;;;5.10;99.90;;;;;;5076350;28;20036;-40
2023/03/04 05:51:25;;;;;;;11.07;1.88;;;5.10;99.90;;;;;;5077155;28;20051;-42
2023/03/04 05:53:51;;;;;;;7.85;1.50;;;5.00;99.90;;;;;;5052206;28;20525;-44
2023/03/04 05:56:18;;;;;;;9.18;1.75;;;5.00;99.90;;;;;;5050880;28;20041;-41
2023/03/04 05:58:46;;;;;;;6.80;1.50;;;5.00;99.90;;;;;;5057044;28;20380;-45
2023/03/04 06:01:12;;;;;;;8.13;1.35;;;5.10;99.90;;;;;;5056633;28;20470;-39
2023/03/04 06:03:38;;;;;;;9.45;1.75;;;5.10;99.90;;;;;;5056313;28;20140;-37
2023/03/04 06:06:04;;;;;;;6.90;1.67;;;5.10;99.90;;;;;;5062846;28;20048;-37
2023/03/04 06:08:30;;;;;;;6.60;1.38;;;5.00;99.90;;;;;;5075562;28;20052;-38
2023/03/04 06:10:57;;;;;;;12.10;2.00;;;4.90;99.90;;;;;;5075606;28;20434;-41
2023/03/04 06:13:23;;;;;;;11.02;2.33;;;4.80;99.90;;;;;;5076024;28;20055;-43
2023/03/04 06:15:57;;;;;;;7.43;1.35;;;4.80;99.90;;;;;;5055991;28;20049;-42
2023/03/04 06:18:23;;;;;;;;;;;4.80;99.90;;;;;;5056980;28;20097;-42
2023/03/04 06:20:49;;;;;;;7.13;1.90;;;4.70;99.90;;;;;;5056710;28;19974;-43
2023/03/04 06:23:14;;;;;;;13.55;1.77;;;4.80;99.90;;;;;;5055921;28;20454;-41
2023/03/04 06:25:40;;;;;;;7.82;2.10;;;4.90;99.90;;;;;;5055802;28;20497;-46
2023/03/04 06:28:06;;;;;;;8.07;2.15;;;4.80;99.90;;;;;;5056060;28;20546;-41
2023/03/04 06:30:31;;;;;;;9.38;2.25;;;4.90;99.90;;;;;;5057429;28;20040;-42
2023/03/04 06:32:57;;;;;;;6.80;1.88;;;4.90;99.90;;;;;;5055978;28;20093;-40
2023/03/04 06:35:23;;;;;;;10.80;2.63;;;5.00;99.90;;;;;;5054458;28;20772;-40
2023/03/04 06:37:48;;;;;;;10.02;1.95;;;5.10;99.90;;;;;;5055341;28;20479;-41
2023/03/04 06:40:14;;;;;;;11.48;2.13;;;5.20;99.90;;;;;;5049014;28;20044;-43
2023/03/04 06:42:40;;;;;;;12.68;2.42;;;5.10;99.90;;;;;;5075595;28;20280;-39
2023/03/04 06:45:06;;;;;;;11.15;2.25;;;5.20;99.90;;;;;;5069129;28;20047;-45
2023/03/04 06:47:32;;;;;;;11.63;2.13;;;5.30;99.90;;;;;;5069404;28;20056;-45
2023/03/04 06:49:58;;;;;;;10.23;2.92;;;5.30;99.90;;;;;;5075976;28;20048;-38
2023/03/04 06:52:23;;;;;;;8.00;1.92;;;5.40;99.90;;;;;;5063982;28;20126;-46
2023/03/04 06:54:49;;;;;;;10.70;2.75;;;5.40;99.90;;;;;;5076204;28;20420;-38
2023/03/04 06:57:15;;;;;;;14.32;2.20;;;5.40;99.90;;;;;;5050502;28;20045;-40
2023/03/04 06:59:41;;;;;;;9.43;2.05;;;5.40;99.90;;;;;;5062189;28;20040;-46
2023/03/04 07:02:10;;;;;;;10.65;2.40;;;5.50;99.90;;;;;;5076461;28;20079;-41
2023/03/04 07:04:36;;;;;;;8.63;2.17;;;5.50;99.90;;;;;;5061577;28;20040;-43
2023/03/04 07:07:02;;;;;;;6.63;1.90;;;5.60;99.90;;;;;;5076053;28;20149;-43
2023/03/04 07:09:27;;;;;;;10.77;2.25;;;5.60;99.90;;;;;;5076386;28;20144;-43
2023/03/04 07:11:53;;;;;;;8.65;2.20;;;5.60;99.90;;;;;;5075895;28;20367;-38
2023/03/04 07:14:18;;;;;;;12.93;3.10;;;5.60;99.90;;;;;;5075952;28;20140;-40
2023/03/04 07:16:44;;;;;;;10.02;1.92;;;5.60;99.90;;;;;;5075553;28;20097;-43
2023/03/04 07:19:10;;;;;;;10.82;1.90;;;5.70;99.90;;;;;;5075770;28;20378;-37
2023/03/04 07:21:36;;;;;;;10.25;1.80;;;5.70;99.90;;;;;;5074425;28;20056;-43
2023/03/04 07:24:02;;;;;;;9.50;1.90;;;5.70;99.90;;;;;;5076498;28;20384;-47
2023/03/04 07:26:28;;;;;;;7.45;2.05;;;5.80;99.90;;;;;;5075988;28;20040;-36
2023/03/04 07:28:56;;;;;;;5.97;1.70;;;5.80;99.90;;;;;;5068746;28;20110;-43
2023/03/04 07:31:30;;;;;;;7.82;1.58;;;5.90;99.90;;;;;;5070612;28;20545;-38
2023/03/04 07:34:01;;;;;;;9.38;1.88;;;5.90;99.90;;;;;;5075081;28;20050;-44
2023/03/04 07:36:27;;;;;;;8.23;1.70;;;5.90;99.90;;;;;;5070685;28;20563;-47
2023/03/04 07:38:53;;;;;;;8.07;2.33;;;5.90;99.90;;;;;;5047060;28;20527;-42
2023/03/04 07:41:20;;;;;;;10.73;1.75;;;6.00;99.90;;;;;;5065754;28;20549;-43
2023/03/04 07:43:46;;;;;;;9.45;2.00;;;6.00;99.90;;;;;;5074236;28;20120;-44
2023/03/04 07:46:13;;;;;;;11.27;1.80;;;6.10;99.90;;;;;;5074493;28;20048;-41
2023/03/04 07:48:39;;;;;;;8.70;2.85;;;6.10;99.90;;;;;;5067629;28;20033;-45
2023/03/04 07:51:10;;;;;;;8.10;2.08;;;6.10;99.90;;;;;;5057281;28;20563;-46
2023/03/04 07:53:37;;;;;;;9.15;1.83;;;6.10;99.90;;;;;;5052830;28;20093;-42
2023/03/04 07:56:04;;;;;;;7.55;1.92;;;6.20;99.90;;;;;;5052569;28;20494;-42
2023/03/04 07:58:31;;;;;;;7.47;1.90;;;6.10;99.90;;;;;;5054532;28;20295;-43
2023/03/04 08:00:57;;;;;;;7.68;1.80;;;6.20;99.90;;;;;;5052497;28;20380;-43
2023/03/04 08:03:23;;;;;;;7.82;2.10;;;6.30;99.90;;;;;;5054257;28;20051;-44
2023/03/04 08:05:49;;;;;;;13.02;2.13;;;6.30;99.90;;;;;;5071275;28;20083;-45
2023/03/04 08:08:14;;;;;;;11.23;2.80;;;6.30;99.90;;;;;;5074347;28;20454;-42
2023/03/04 08:10:40;;;;;;;12.00;2.40;;;6.40;99.90;;;;;;5056586;28;20041;-40
2023/03/04 08:13:06;;;;;;;11.55;2.42;;;6.40;99.90;;;;;;5054316;28;20430;-45
2023/03/04 08:15:34;;;;;;;12.95;3.58;;;6.30;99.90;;;;;;5056081;28;20040;-44
2023/03/04 08:18:00;;;;;;;9.60;2.67;;;6.40;99.90;;;;;;5056510;28;20102;-39
2023/03/04 08:20:27;;;;;;;8.63;1.70;;;6.40;99.90;;;;;;5054145;28;20560;-40
2023/03/04 08:22:52;;;;;;;17.70;2.92;;;6.40;99.90;;;;;;5054378;28;20453;-38
2023/03/04 08:25:18;;;;;;;14.05;2.10;;;6.50;99.90;;;;;;5059065;28;20071;-46
2023/03/04 08:27:44;;;;;;;12.35;2.53;;;6.60;99.90;;;;;;5074747;28;20351;-40
2023/03/04 08:30:10;;;;;;;12.40;2.45;;;6.70;99.90;;;;;;5074183;28;20489;-40
2023/03/04 08:32:36;;;;;;;12.95;2.10;;;6.90;99.90;;;;;;5073645;28;20779;-44
2023/03/04 08:35:01;;;;;;;12.18;2.05;;;7.00;99.90;;;;;;5059286;28;20056;-39
2023/03/04 08:37:28;;;;;;;12.15;1.83;;;7.00;99.90;;;;;;5053288;28;20047;-42
2023/03/04 08:39:54;;;;;;;12.18;2.67;;;7.00;99.90;;;;;;5052880;28;20510;-45
2023/03/04 08:42:20;;;;;;;10.13;1.73;;;7.00;99.90;;;;;;5053332;28;20041;-42
2023/03/04 08:44:46;;;;;;;9.93;1.88;;;6.90;99.90;;;;;;5055585;28;20363;-46
2023/03/04 08:47:12;;;;;;;9.88;2.00;;;6.80;99.90;;;;;;5055397;28;20497;-43
2023/03/04 08:49:38;;;;;;;13.32;3.03;;;6.70;99.90;;;;;;5053511;28;20044;-40
2023/03/04 08:52:06;;;;;;;13.23;2.67;;;6.60;99.90;;;;;;5051996;28;20049;-41
2023/03/04 08:54:32;;;;;;;17.85;3.60;;;6.50;99.90;;;;;;5051835;28;20045;-48
2023/03/04 08:56:58;;;;;;;17.10;3.35;;;6.50;99.90;;;;;;5050584;28;20168;-42
2023/03/04 08:59:24;;;;;;;19.65;3.75;;;6.40;99.90;;;;;;5053338;28;20047;-51
2023/03/04 09:01:49;;;;;;;15.00;2.60;;;6.50;99.90;;;;;;5065215;28;20050;-43
2023/03/04 09:04:15;;;;;;;16.75;3.08;;;6.40;99.90;;;;;;5062941;28;20044;-42
2023/03/04 09:06:41;;;;;;;14.63;3.25;;;6.50;99.90;;;;;;5073114;28;20392;-39
2023/03/04 09:09:06;;;;;;;16.13;2.90;;;6.60;99.90;;;;;;5073550;28;20043;-42
2023/03/04 09:11:32;;;;;;;16.13;2.70;;;6.70;99.90;;;;;;5074852;28;20046;-45
2023/03/04 09:13:58;;;;;;;21.67;3.30;;;6.80;99.90;;;;;;5071377;28;20470;-37
2023/03/04 09:16:23;;;;;;;17.35;3.90;;;6.90;99.90;;;;;;5073231;28;20764;-39
2023/03/04 09:18:49;;;;;;;24.95;3.92;;;6.90;99.90;;;;;;5072084;28;20048;-46
2023/03/04 09:21:15;;;;;;;13.73;3.33;;;7.00;99.90;;;;;;5074059;28;20123;-43
2023/03/04 09:23:41;;;;;;;19.70;3.67;;;7.00;99.90;;;;;;5073472;28;20119;-40
2023/03/04 09:26:19;;;;;;;17.90;5.72;;;7.00;99.90;;;;;;5073630;28;20042;-40
2023/03/04 09:28:48;;;;;;;19.23;3.75;;;7.00;99.90;;;;;;5073492;28;20109;-42
2023/03/04 09:31:13;;;;;;;20.48;4.53;;;7.00;99.90;;;;;;5068125;28;20048;-36
2023/03/04 09:33:41;;;;;;;18.75;3.75;;;7.00;99.90;;;;;;5060539;28;20560;-40
2023/03/04 09:36:09;;;;;;;15.18;4.30;;;7.00;99.90;;;;;;5058680;28;20048;-43
2023/03/04 09:38:37;;;;;;;16.60;3.30;;;7.00;99.90;;;;;;5048077;28;20479;-42
2023/03/04 09:41:07;;;;;;;13.75;4.00;;;7.10;99.90;;;;;;5052947;28;20090;-46
2023/03/04 09:43:33;;;;;;;22.05;3.97;;;7.20;99.90;;;;;;5054169;28;20648;-40
2023/03/04 09:46:03;;;;;;;22.20;4.35;;;7.20;99.90;;;;;;5055362;28;20045;-41
2023/03/04 09:48:54;;;;;;;14.48;3.92;;;7.20;99.90;;;;;;5056821;28;20048;-40
2023/03/04 09:51:55;;;;;;;22.63;5.97;;;7.20;99.90;;;;;;5052648;28;20063;-44
2023/03/04 09:54:58;;;;;;;12.05;3.60;;;7.30;99.90;;;;;;5051687;28;20072;-41
2023/03/04 09:57:46;;;;;;;23.27;5.00;;;7.30;99.90;;;;;;5053994;28;20063;-39
2023/03/04 10:00:19;;;;;;;15.57;3.83;;;7.30;99.90;;;;;;5052912;28;20043;-42
2023/03/04 10:03:05;;;;;;;17.02;3.55;;;7.20;99.90;;;;;;5052497;28;20572;-44
2023/03/04 10:05:34;;;;;;;15.43;3.67;;;7.30;99.90;;;;;;5053594;28;20059;-41
2023/03/04 10:08:18;;;;;;;18.15;3.72;;;7.20;99.90;;;;;;5052886;28;20056;-44
2023/03/04 10:10:45;;;;;;;20.98;2.92;;;7.20;99.90;;;;;;5048482;28;20041;-44
2023/03/04 10:13:19;;;;;;;13.07;3.60;;;7.20;99.90;;;;;;5049722;28;20084;-39
2023/03/04 10:15:49;;;;;;;12.45;2.47;;;7.20;99.90;;;;;;5051964;28;20051;-44
2023/03/04 10:18:32;;;;;;;14.27;3.50;;;7.20;99.90;;;;;;5051232;28;20509;-45
2023/03/04 10:21:28;;;;;;;16.00;4.47;;;7.30;99.90;;;;;;5052963;28;20127;-43
2023/03/04 10:23:53;;;;;;;15.23;3.38;;;7.30;99.90;;;;;;5052948;28;20090;-40
2023/03/04 10:26:21;;;;;;;18.38;4.28;;;7.20;99.90;;;;;;5052718;28;20178;-37
2023/03/04 10:28:48;;;;;;;17.30;3.47;;;7.20;99.90;;;;;;5046903;28;20614;-41
2023/03/04 10:31:35;;;;;;;27.70;3.90;;;7.00;99.90;;;;;;5046062;28;20048;-40
2023/03/04 10:34:03;;;;;;;14.70;3.05;;;7.00;99.90;;;;;;5037123;28;20124;-42
2023/03/04 10:36:28;;;;;;;13.30;2.55;;;6.90;99.90;;;;;;5038507;28;20214;-43
2023/03/04 10:38:57;;;;;;;13.02;3.25;;;7.00;99.90;;;;;;5047825;28;20861;-46
2023/03/04 10:41:26;;;;;;;14.38;3.83;;;7.10;99.90;;;;;;5069888;28;20171;-42
2023/03/04 10:44:07;;;;;;;14.52;4.07;;;7.20;99.90;;;;;;5036343;28;20207;-37
2023/03/04 10:46:46;;;;;;;13.82;2.63;;;7.20;99.90;;;;;;5040144;28;20423;-41
2023/03/04 10:49:15;;;;;;;15.25;3.28;;;7.10;99.90;;;;;;5034756;28;20039;-46
2023/03/04 10:51:45;;;;;;;16.42;3.15;;;6.80;99.90;;;;;;5045389;28;20048;-41
2023/03/04 10:54:29;;;;;;;15.32;2.70;;;6.80;99.90;;;;;;5035979;28;20048;-37
2023/03/04 10:57:12;;;;;;;9.15;2.10;;;6.70;99.90;;;;;;5051220;28;20961;-44
2023/03/04 10:59:55;;;;;;;9.33;2.50;;;6.90;99.90;;;;;;5046382;28;20422;-39
2023/03/04 11:02:25;;;;;;;10.02;2.25;;;7.00;99.90;;;;;;5048521;28;20776;-43
2023/03/04 11:05:08;;;;;;;8.93;2.22;;;7.20;99.90;;;;;;5044926;28;20120;-43
2023/03/04 11:07:47;;;;;;;4.88;1.73;;;7.30;99.90;;;;;;5077157;28;20079;-48
2023/03/04 11:10:22;;;;;;;5.32;1.45;;;7.50;99.90;;;;;;5056408;28;20127;-39
2023/03/04 11:13:05;;;;;;;12.05;1.90;;;7.50;99.90;;;;;;5054934;28;20406;-42
2023/03/04 11:16:04;;;;;;;14.45;3.17;;;7.10;99.90;;;;;;5055288;28;20127;-39
2023/03/04 11:18:50;;;;;;;9.85;2.20;;;7.00;99.90;;;;;;5040469;28;20052;-39
2023/03/04 11:21:25;;;;;;;12.90;2.50;;;6.90;99.90;;;;;;5067816;28;20141;-46
2023/03/04 11:24:09;;;;;;;9.73;3.03;;;7.10;99.90;;;;;;5060957;28;20048;-40
2023/03/04 11:26:47;;;;;;;14.38;3.40;;;7.10;99.90;;;;;;5076000;28;20100;-45
2023/03/04 11:29:21;;;;;;;14.50;2.40;;;7.10;99.90;;;;;;5076016;28;20044;-43
2023/03/04 11:31:53;;;;;;;13.20;2.63;;;7.30;99.90;;;;;;5073517;28;20040;-46
2023/03/04 11:34:31;;;;;;;13.68;2.67;;;7.50;99.90;;;;;;5055971;28;20058;-43
2023/03/04 11:37:12;;;;;;;13.88;3.33;;;7.70;99.90;;;;;;5052410;28;20818;-40
2023/03/04 11:40:00;;;;;;;12.93;3.15;;;7.80;99.90;;;;;;5057219;28;20421;-46
2023/03/04 11:42:40;;;;;;;11.52;2.97;;;7.80;99.90;;;;;;5056952;28;20066;-40
2023/03/04 11:45:42;;;;;;;12.65;3.00;;;7.80;99.90;;;;;;5055321;28;20054;-46
2023/03/04 11:48:22;;;;;;;14.07;2.50;;;7.80;99.90;;;;;;5060920;28;20044;-41
2023/03/04 11:51:04;;;;;;;14.32;2.92;;;7.90;99.90;;;;;;5075220;28;20047;-43
2023/03/04 11:53:43;;;;;;;19.58;3.60;;;8.00;99.90;;;;;;5053596;28;20040;-39
2023/03/04 11:56:18;;;;;;;17.70;3.65;;;7.80;99.90;;;;;;5054131;28;20082;-46
2023/03/04 11:59:03;;;;;;;15.80;3.35;;;7.60;99.90;;;;;;5055273;28;20051;-37
2023/03/04 12:01:37;;;;;;;18.05;3.78;;;7.50;99.90;;;;;;5051258;28;20470;-43
2023/03/04 12:04:06;;;;;;;15.63;3.97;;;7.60;99.90;;;;;;5054867;28;20055;-44
2023/03/04 12:06:47;;;;;;;18.23;4.50;;;7.90;99.90;;;;;;5054920;28;20502;-42
2023/03/04 12:09:18;;;;;;;16.42;3.13;;;8.10;99.90;;;;;;5056329;28;20048;-37
2023/03/04 12:12:12;;;;;;;12.73;3.72;;;8.00;99.90;;;;;;5054748;28;20380;-45
2023/03/04 12:14:43;;;;;;;15.98;4.25;;;7.80;99.90;;;;;;5053055;28;20044;-43
2023/03/04 12:17:44;;;;;;;21.70;4.70;;;7.30;99.90;;;;;;5054363;28;20044;-46
2023/03/04 12:20:34;;;;;;;14.35;4.13;;;7.30;99.90;;;;;;5030376;28;20048;-41
2023/03/04 12:23:18;;;;;;;12.63;2.75;;;7.40;99.90;;;;;;5026535;28;20447;-47
2023/03/04 12:25:50;;;;;;;9.82;2.35;;;7.50;99.90;;;;;;5012947;28;20506;-37
2023/03/04 12:28:41;;;;;;;9.45;2.38;;;7.50;99.90;;;;;;5028875;28;20075;-38
2023/03/04 12:31:20;;;;;;;6.57;2.38;;;7.70;99.90;;;;;;5030719;28;20045;-39
2023/03/04 12:34:07;;;;;;;14.30;2.92;;;8.00;99.90;;;;;;5029453;28;20041;-44
2023/03/04 12:36:58;;;;;;;9.73;2.60;;;8.00;99.90;;;;;;5033274;28;20040;-39
2023/03/04 12:39:31;;;;;;;16.80;3.17;;;8.00;99.90;;;;;;5028596;28;20480;-41
2023/03/04 12:42:33;;;;;;;11.23;2.53;;;8.20;99.90;;;;;;5032177;28;20063;-38
2023/03/04 12:45:17;;;;;;;17.25;3.25;;;8.30;99.90;;;;;;5027695;28;20056;-44
2023/03/04 12:47:51;;;;;;;27.00;4.97;;;8.10;99.90;;;;;;5011905;28;20056;-42
2023/03/04 12:50:30;;;;;;;12.43;3.10;;;7.80;99.90;;;;;;5028950;28;20095;-39
2023/03/04 12:53:30;;;;;;;21.60;3.75;;;7.70;99.90;;;;;;5028997;28;20048;-43
2023/03/04 12:55:58;;;;;;;15.43;4.70;;;7.80;99.90;;;;;;5050633;28;20048;-46
2023/03/04 12:58:29;;;;;;;14.00;3.38;;;7.80;99.90;;;;;;5051403;28;20304;-40
2023/03/04 13:01:22;;;;;;;10.68;2.35;;;7.60;99.90;;;;;;5056455;28;20044;-43
2023/03/04 13:04:01;;;;;;;13.48;2.70;;;7.50;99.90;;;;;;5051782;28;20052;-37